Jubbega, Netherlands
Current Conditions -  °F | °C
As of 8:55 AM on Wednesday 22 Oct 2014 (Local Time) from EHLW Reporting Station
Drizzle Drizzle  
Wind Chill: 50°   Ceiling: 5000
Heat Index: 50°   Visibility: 6mi
Dew Point: 43°   Wind: 30mph
Humidity: 76%   Direction: 320°NW
Pressure: 29.88"   Gusts: 41mph
Location:  53°N, 6.12°E
Report Text: EHLW 220655Z AUTO 32026G36KT 9999 DZ FEW031 SCT042 BKN050 10/06 Q1012 BLU 32025G35KT 9999 FEW022CB BKN040 TEMPO 33028G44KT 4500 SHRA SCT022CB BKN030
Loading
Personal Weather Stations






























Interactive Weather Map
Tropical Storm Tracking
New forecast layout! Learn more

10-Day Weather Forecast

Advertisements
Track Severe Weather on mobile